sensor_id;sensor_type;location;lat;lon;timestamp;pressure;altitude;pressure_sealevel;temperature;humidity
5703;BME280;2876;51.738;10.050;2023-06-22T00:03:12;99634.16;;;19.89;100.00
5703;BME280;2876;51.738;10.050;2023-06-22T00:09:14;99629.09;;;19.75;100.00
5703;BME280;2876;51.738;10.050;2023-06-22T00:15:16;99640.94;;;19.64;100.00
5703;BME280;2876;51.738;10.050;2023-06-22T00:21:18;99634.94;;;19.62;100.00
5703;BME280;2876;51.738;10.050;2023-06-22T00:27:22;99621.13;;;19.52;100.00
5703;BME280;2876;51.738;10.050;2023-06-22T00:33:24;99611.34;;;19.34;100.00
5703;BME280;2876;51.738;10.050;2023-06-22T00:39:26;99603.03;;;19.41;100.00
5703;BME280;2876;51.738;10.050;2023-06-22T00:45:28;99594.94;;;19.46;100.00
5703;BME280;2876;51.738;10.050;2023-06-22T00:51:30;99578.06;;;19.27;100.00
5703;BME280;2876;51.738;10.050;2023-06-22T00:57:32;99574.94;;;19.35;100.00
5703;BME280;2876;51.738;10.050;2023-06-22T01:03:34;99566.09;;;19.45;100.00
5703;BME280;2876;51.738;10.050;2023-06-22T01:10:03;99572.06;;;19.64;100.00
5703;BME280;2876;51.738;10.050;2023-06-22T01:16:29;99569.84;;;19.83;100.00
5703;BME280;2876;51.738;10.050;2023-06-22T01:29:15;99558.25;;;19.92;100.00
5703;BME280;2876;51.738;10.050;2023-06-22T01:35:19;99547.34;;;19.92;100.00
5703;BME280;2876;51.738;10.050;2023-06-22T01:41:26;99545.63;;;20.08;100.00
5703;BME280;2876;51.738;10.050;2023-06-22T01:47:28;99547.63;;;19.91;100.00
5703;BME280;2876;51.738;10.050;2023-06-22T01:53:30;99540.50;;;19.63;100.00
5703;BME280;2876;51.738;10.050;2023-06-22T02:06:10;99547.84;;;19.45;100.00
5703;BME280;2876;51.738;10.050;2023-06-22T02:12:20;99552.59;;;19.33;100.00
5703;BME280;2876;51.738;10.050;2023-06-22T02:18:23;99554.53;;;19.38;100.00
5703;BME280;2876;51.738;10.050;2023-06-22T02:24:27;99557.50;;;19.53;100.00
5703;BME280;2876;51.738;10.050;2023-06-22T02:30:32;99557.34;;;19.43;100.00
5703;BME280;2876;51.738;10.050;2023-06-22T02:36:34;99582.72;;;19.48;100.00
5703;BME280;2876;51.738;10.050;2023-06-22T02:42:39;99587.31;;;19.65;100.00
5703;BME280;2876;51.738;10.050;2023-06-22T02:48:41;99596.88;;;19.67;100.00
5703;BME280;2876;51.738;10.050;2023-06-22T02:54:47;99592.19;;;19.63;100.00
5703;BME280;2876;51.738;10.050;2023-06-22T03:00:49;99609.34;;;19.63;100.00
5703;BME280;2876;51.738;10.050;2023-06-22T03:06:54;99623.19;;;19.62;100.00
5703;BME280;2876;51.738;10.050;2023-06-22T03:12:56;99616.16;;;19.66;100.00
5703;BME280;2876;51.738;10.050;2023-06-22T03:18:58;99609.09;;;19.65;100.00
5703;BME280;2876;51.738;10.050;2023-06-22T03:25:00;99596.88;;;19.67;100.00
5703;BME280;2876;51.738;10.050;2023-06-22T03:31:03;99586.75;;;19.63;100.00
5703;BME280;2876;51.738;10.050;2023-06-22T03:37:06;99575.78;;;19.58;100.00
5703;BME280;2876;51.738;10.050;2023-06-22T03:43:07;99583.34;;;19.56;100.00
5703;BME280;2876;51.738;10.050;2023-06-22T03:49:09;99587.81;;;19.62;100.00
5703;BME280;2876;51.738;10.050;2023-06-22T03:55:11;99599.91;;;19.71;100.00
5703;BME280;2876;51.738;10.050;2023-06-22T04:01:14;99594.72;;;19.91;100.00
5703;BME280;2876;51.738;10.050;2023-06-22T04:07:16;99584.69;;;20.19;100.00
5703;BME280;2876;51.738;10.050;2023-06-22T04:13:19;99581.47;;;20.22;100.00
5703;BME280;2876;51.738;10.050;2023-06-22T04:19:21;99569.75;;;20.21;100.00
5703;BME280;2876;51.738;10.050;2023-06-22T04:25:23;99575.25;;;20.26;100.00
5703;BME280;2876;51.738;10.050;2023-06-22T04:31:25;99561.16;;;20.08;100.00
5703;BME280;2876;51.738;10.050;2023-06-22T04:37:34;99571.34;;;19.95;100.00
5703;BME280;2876;51.738;10.050;2023-06-22T04:43:36;99551.03;;;20.03;100.00
5703;BME280;2876;51.738;10.050;2023-06-22T04:49:38;99561.38;;;20.06;100.00
5703;BME280;2876;51.738;10.050;2023-06-22T04:55:41;99558.25;;;20.19;100.00
5703;BME280;2876;51.738;10.050;2023-06-22T05:01:47;99548.59;;;20.34;100.00
5703;BME280;2876;51.738;10.050;2023-06-22T05:07:51;99555.34;;;20.26;100.00
5703;BME280;2876;51.738;10.050;2023-06-22T05:13:55;99551.00;;;20.30;100.00
5703;BME280;2876;51.738;10.050;2023-06-22T05:19:57;99553.53;;;20.10;100.00
5703;BME280;2876;51.738;10.050;2023-06-22T05:25:59;99553.84;;;20.13;100.00
5703;BME280;2876;51.738;10.050;2023-06-22T05:32:01;99550.97;;;20.25;100.00
5703;BME280;2876;51.738;10.050;2023-06-22T05:38:03;99555.28;;;20.48;100.00
5703;BME280;2876;51.738;10.050;2023-06-22T05:44:05;99561.63;;;20.54;100.00
5703;BME280;2876;51.738;10.050;2023-06-22T05:50:08;99572.88;;;20.62;100.00
5703;BME280;2876;51.738;10.050;2023-06-22T05:56:14;99578.28;;;20.89;100.00
5703;BME280;2876;51.738;10.050;2023-06-22T06:02:16;99577.25;;;21.00;100.00
5703;BME280;2876;51.738;10.050;2023-06-22T06:08:18;99577.72;;;21.29;100.00
5703;BME280;2876;51.738;10.050;2023-06-22T06:14:20;99568.56;;;21.46;100.00
5703;BME280;2876;51.738;10.050;2023-06-22T06:20:25;99582.03;;;21.63;98.77
5703;BME280;2876;51.738;10.050;2023-06-22T06:26:27;99587.06;;;21.34;100.00
5703;BME280;2876;51.738;10.050;2023-06-22T06:32:31;99575.72;;;21.15;100.00
5703;BME280;2876;51.738;10.050;2023-06-22T06:38:33;99561.56;;;21.70;100.00
5703;BME280;2876;51.738;10.050;2023-06-22T06:44:35;99564.94;;;21.93;100.00
5703;BME280;2876;51.738;10.050;2023-06-22T06:50:39;99565.66;;;22.87;97.15
5703;BME280;2876;51.738;10.050;2023-06-22T06:56:41;99554.13;;;23.31;91.58
5703;BME280;2876;51.738;10.050;2023-06-22T07:02:46;99554.16;;;23.95;89.92
5703;BME280;2876;51.738;10.050;2023-06-22T07:08:50;99552.03;;;25.29;83.04
5703;BME280;2876;51.738;10.050;2023-06-22T07:14:53;99542.34;;;25.37;80.06
5703;BME280;2876;51.738;10.050;2023-06-22T07:20:55;99548.88;;;25.17;81.08
5703;BME280;2876;51.738;10.050;2023-06-22T07:26:56;99553.50;;;25.45;79.97
5703;BME280;2876;51.738;10.050;2023-06-22T07:33:01;99544.13;;;25.70;78.08
5703;BME280;2876;51.738;10.050;2023-06-22T07:39:05;99539.13;;;25.77;77.66
5703;BME280;2876;51.738;10.050;2023-06-22T07:45:08;99538.34;;;25.72;78.84
5703;BME280;2876;51.738;10.050;2023-06-22T07:51:10;99529.94;;;25.87;78.97
5703;BME280;2876;51.738;10.050;2023-06-22T07:57:14;99529.41;;;26.23;76.84
5703;BME280;2876;51.738;10.050;2023-06-22T08:03:16;99535.28;;;26.35;74.29
5703;BME280;2876;51.738;10.050;2023-06-22T08:09:19;99523.16;;;26.55;74.65
5703;BME280;2876;51.738;10.050;2023-06-22T08:15:21;99527.56;;;27.02;74.23
5703;BME280;2876;51.738;10.050;2023-06-22T08:21:23;99533.84;;;27.49;70.98
5703;BME280;2876;51.738;10.050;2023-06-22T08:27:25;99539.47;;;27.17;70.89
5703;BME280;2876;51.738;10.050;2023-06-22T08:33:30;99540.28;;;27.45;70.44
5703;BME280;2876;51.738;10.050;2023-06-22T08:39:32;99533.78;;;28.18;68.02
5703;BME280;2876;51.738;10.050;2023-06-22T08:45:37;99525.91;;;28.70;66.12
5703;BME280;2876;51.738;10.050;2023-06-22T08:51:39;99512.34;;;29.53;63.05
5703;BME280;2876;51.738;10.050;2023-06-22T08:57:40;99497.63;;;30.01;62.58
5703;BME280;2876;51.738;10.050;2023-06-22T09:03:43;99491.16;;;30.23;61.14
5703;BME280;2876;51.738;10.050;2023-06-22T09:09:45;99492.38;;;31.25;59.01
5703;BME280;2876;51.738;10.050;2023-06-22T09:15:47;99495.75;;;31.01;53.78
5703;BME280;2876;51.738;10.050;2023-06-22T09:21:49;99494.78;;;30.97;57.06
5703;BME280;2876;51.738;10.050;2023-06-22T09:27:51;99479.47;;;30.99;55.07
5703;BME280;2876;51.738;10.050;2023-06-22T09:33:54;99458.00;;;31.26;52.63
5703;BME280;2876;51.738;10.050;2023-06-22T09:39:56;99445.13;;;31.80;53.28
5703;BME280;2876;51.738;10.050;2023-06-22T09:45:58;99451.91;;;32.25;52.31
5703;BME280;2876;51.738;10.050;2023-06-22T09:52:00;99445.28;;;32.83;51.80
5703;BME280;2876;51.738;10.050;2023-06-22T09:58:02;99442.72;;;32.66;49.79
5703;BME280;2876;51.738;10.050;2023-06-22T10:04:04;99434.06;;;33.66;47.01
5703;BME280;2876;51.738;10.050;2023-06-22T10:10:07;99429.63;;;33.77;44.64
5703;BME280;2876;51.738;10.050;2023-06-22T10:16:09;99434.16;;;34.22;42.01
5703;BME280;2876;51.738;10.050;2023-06-22T10:22:11;99447.28;;;34.49;43.76
5703;BME280;2876;51.738;10.050;2023-06-22T10:28:13;99427.41;;;34.23;41.53
5703;BME280;2876;51.738;10.050;2023-06-22T10:34:15;99418.25;;;34.66;43.22
5703;BME280;2876;51.738;10.050;2023-06-22T10:40:17;99415.03;;;35.63;40.57
5703;BME280;2876;51.738;10.050;2023-06-22T10:46:20;99408.91;;;36.12;40.74
5703;BME280;2876;51.738;10.050;2023-06-22T10:52:22;99388.56;;;36.34;41.41
5703;BME280;2876;51.738;10.050;2023-06-22T10:58:24;99387.75;;;37.29;39.61
5703;BME280;2876;51.738;10.050;2023-06-22T11:04:27;99375.22;;;37.46;37.49
5703;BME280;2876;51.738;10.050;2023-06-22T11:10:29;99374.00;;;36.44;38.51
5703;BME280;2876;51.738;10.050;2023-06-22T11:16:31;99376.84;;;36.94;38.69
5703;BME280;2876;51.738;10.050;2023-06-22T11:22:33;99363.44;;;36.57;37.96
5703;BME280;2876;51.738;10.050;2023-06-22T11:28:35;99349.13;;;35.97;39.11
5703;BME280;2876;51.738;10.050;2023-06-22T11:34:37;99332.91;;;36.71;40.20
5703;BME280;2876;51.738;10.050;2023-06-22T11:40:39;99320.19;;;37.00;39.25
5703;BME280;2876;51.738;10.050;2023-06-22T11:46:41;99296.06;;;36.20;38.91
5703;BME280;2876;51.738;10.050;2023-06-22T11:52:43;99296.91;;;36.93;38.30
5703;BME280;2876;51.738;10.050;2023-06-22T11:58:45;99286.59;;;37.27;38.11
5703;BME280;2876;51.738;10.050;2023-06-22T12:04:47;99284.94;;;37.22;37.42
5703;BME280;2876;51.738;10.050;2023-06-22T12:10:50;99276.59;;;36.73;37.05
5703;BME280;2876;51.738;10.050;2023-06-22T12:16:52;99265.91;;;36.06;40.41
5703;BME280;2876;51.738;10.050;2023-06-22T12:22:54;99261.06;;;37.02;38.26
5703;BME280;2876;51.738;10.050;2023-06-22T12:28:57;99253.50;;;38.03;36.52
5703;BME280;2876;51.738;10.050;2023-06-22T12:34:59;99249.13;;;39.16;33.69
5703;BME280;2876;51.738;10.050;2023-06-22T12:41:01;99245.41;;;39.01;34.42
5703;BME280;2876;51.738;10.050;2023-06-22T12:47:04;99227.16;;;38.63;33.78
5703;BME280;2876;51.738;10.050;2023-06-22T12:53:06;99221.22;;;39.63;32.28
5703;BME280;2876;51.738;10.050;2023-06-22T12:59:08;99214.09;;;38.85;35.27
5703;BME280;2876;51.738;10.050;2023-06-22T13:05:10;99218.22;;;37.99;35.32
5703;BME280;2876;51.738;10.050;2023-06-22T13:11:12;99212.28;;;36.73;36.93
5703;BME280;2876;51.738;10.050;2023-06-22T13:17:15;99212.81;;;36.06;38.30
5703;BME280;2876;51.738;10.050;2023-06-22T13:23:17;99189.47;;;35.29;39.54
5703;BME280;2876;51.738;10.050;2023-06-22T13:29:19;99167.66;;;34.96;42.68
5703;BME280;2876;51.738;10.050;2023-06-22T13:35:21;99154.34;;;34.90;41.62
5703;BME280;2876;51.738;10.050;2023-06-22T13:41:23;99148.69;;;34.86;42.68
5703;BME280;2876;51.738;10.050;2023-06-22T13:47:25;99152.72;;;34.69;46.61
5703;BME280;2876;51.738;10.050;2023-06-22T13:53:30;99144.13;;;34.58;46.21
5703;BME280;2876;51.738;10.050;2023-06-22T13:59:32;99113.72;;;35.08;42.42
5703;BME280;2876;51.738;10.050;2023-06-22T14:05:34;99125.34;;;35.52;42.48
5703;BME280;2876;51.738;10.050;2023-06-22T14:11:36;99086.94;;;34.84;44.55
5703;BME280;2876;51.738;10.050;2023-06-22T14:17:39;99037.13;;;34.44;45.21
5703;BME280;2876;51.738;10.050;2023-06-22T14:23:41;98995.50;;;33.96;46.47
5703;BME280;2876;51.738;10.050;2023-06-22T14:29:43;99000.13;;;33.41;49.02
5703;BME280;2876;51.738;10.050;2023-06-22T14:35:45;99006.28;;;32.59;48.55
5703;BME280;2876;51.738;10.050;2023-06-22T14:41:47;99015.81;;;32.05;53.21
5703;BME280;2876;51.738;10.050;2023-06-22T14:47:49;98958.78;;;31.43;53.39
5703;BME280;2876;51.738;10.050;2023-06-22T14:53:51;98947.88;;;30.56;56.32
5703;BME280;2876;51.738;10.050;2023-06-22T14:59:53;98959.34;;;30.13;59.24
5703;BME280;2876;51.738;10.050;2023-06-22T15:05:55;98994.47;;;29.32;59.95
5703;BME280;2876;51.738;10.050;2023-06-22T15:11:58;98969.09;;;28.83;62.75
5703;BME280;2876;51.738;10.050;2023-06-22T15:18:02;98955.56;;;28.09;65.48
5703;BME280;2876;51.738;10.050;2023-06-22T15:24:04;98909.66;;;27.78;66.35
5703;BME280;2876;51.738;10.050;2023-06-22T15:30:07;98930.31;;;27.41;69.40
5703;BME280;2876;51.738;10.050;2023-06-22T15:36:09;99124.69;;;26.79;66.15
5703;BME280;2876;51.738;10.050;2023-06-22T15:42:11;99069.59;;;23.31;83.34
5703;BME280;2876;51.738;10.050;2023-06-22T15:48:13;99006.75;;;20.63;94.78
5703;BME280;2876;51.738;10.050;2023-06-22T15:54:15;99026.78;;;19.85;100.00
5703;BME280;2876;51.738;10.050;2023-06-22T16:00:18;99025.50;;;19.40;100.00
5703;BME280;2876;51.738;10.050;2023-06-22T16:06:20;99023.91;;;19.49;100.00
5703;BME280;2876;51.738;10.050;2023-06-22T16:12:22;99012.66;;;19.31;100.00
5703;BME280;2876;51.738;10.050;2023-06-22T16:18:24;99002.78;;;19.67;100.00
5703;BME280;2876;51.738;10.050;2023-06-22T16:24:26;99015.03;;;19.74;100.00
5703;BME280;2876;51.738;10.050;2023-06-22T16:30:29;98954.88;;;19.71;100.00
5703;BME280;2876;51.738;10.050;2023-06-22T16:36:32;98919.81;;;19.90;100.00
5703;BME280;2876;51.738;10.050;2023-06-22T16:42:33;98922.81;;;19.98;100.00
5703;BME280;2876;51.738;10.050;2023-06-22T16:48:36;98885.22;;;20.11;100.00
5703;BME280;2876;51.738;10.050;2023-06-22T16:54:39;98857.19;;;20.05;100.00
5703;BME280;2876;51.738;10.050;2023-06-22T17:00:58;98859.63;;;19.96;100.00
5703;BME280;2876;51.738;10.050;2023-06-22T17:07:14;98873.78;;;19.73;100.00
5703;BME280;2876;51.738;10.050;2023-06-22T17:13:17;98920.34;;;20.02;100.00
5703;BME280;2876;51.738;10.050;2023-06-22T17:19:19;98874.34;;;19.95;100.00
5703;BME280;2876;51.738;10.050;2023-06-22T17:25:22;98909.44;;;19.82;100.00
5703;BME280;2876;51.738;10.050;2023-06-22T17:31:25;98906.13;;;19.59;100.00
5703;BME280;2876;51.738;10.050;2023-06-22T17:37:33;98867.81;;;19.86;100.00
5703;BME280;2876;51.738;10.050;2023-06-22T17:43:45;98872.69;;;19.69;100.00
5703;BME280;2876;51.738;10.050;2023-06-22T17:49:48;98968.75;;;19.64;100.00
5703;BME280;2876;51.738;10.050;2023-06-22T17:55:52;98922.97;;;19.51;100.00
5703;BME280;2876;51.738;10.050;2023-06-22T18:01:54;98915.13;;;19.75;100.00
5703;BME280;2876;51.738;10.050;2023-06-22T18:07:59;98912.06;;;19.51;100.00
5703;BME280;2876;51.738;10.050;2023-06-22T18:14:03;98880.06;;;19.99;100.00
5703;BME280;2876;51.738;10.050;2023-06-22T18:20:06;98835.13;;;19.66;100.00
5703;BME280;2876;51.738;10.050;2023-06-22T18:26:12;98807.66;;;19.83;100.00
5703;BME280;2876;51.738;10.050;2023-06-22T18:32:14;98838.41;;;20.09;100.00
5703;BME280;2876;51.738;10.050;2023-06-22T18:38:16;98948.94;;;20.05;100.00
5703;BME280;2876;51.738;10.050;2023-06-22T18:44:27;98981.19;;;19.55;100.00
5703;BME280;2876;51.738;10.050;2023-06-22T18:50:41;99005.94;;;19.48;100.00
5703;BME280;2876;51.738;10.050;2023-06-22T18:56:57;99124.56;;;19.49;100.00
5703;BME280;2876;51.738;10.050;2023-06-22T19:03:00;99120.69;;;19.40;100.00
5703;BME280;2876;51.738;10.050;2023-06-22T19:09:15;98874.31;;;19.65;100.00
5703;BME280;2876;51.738;10.050;2023-06-22T19:15:17;98735.78;;;19.48;100.00
5703;BME280;2876;51.738;10.050;2023-06-22T19:21:23;98779.31;;;19.48;100.00
5703;BME280;2876;51.738;10.050;2023-06-22T19:27:30;98842.69;;;19.43;100.00
5703;BME280;2876;51.738;10.050;2023-06-22T19:33:35;98919.94;;;19.47;100.00
5703;BME280;2876;51.738;10.050;2023-06-22T19:39:40;98851.34;;;19.25;100.00
5703;BME280;2876;51.738;10.050;2023-06-22T19:45:44;98855.47;;;19.43;100.00
5703;BME280;2876;51.738;10.050;2023-06-22T19:51:46;98870.69;;;19.34;100.00
5703;BME280;2876;51.738;10.050;2023-06-22T19:57:48;98875.59;;;19.47;100.00
5703;BME280;2876;51.738;10.050;2023-06-22T20:03:55;98860.66;;;19.49;100.00
5703;BME280;2876;51.738;10.050;2023-06-22T20:10:16;98836.72;;;19.51;100.00
5703;BME280;2876;51.738;10.050;2023-06-22T20:16:21;98822.06;;;19.58;100.00
5703;BME280;2876;51.738;10.050;2023-06-22T20:22:24;98831.53;;;19.40;100.00
5703;BME280;2876;51.738;10.050;2023-06-22T20:28:26;98818.47;;;19.47;100.00
5703;BME280;2876;51.738;10.050;2023-06-22T20:34:37;98823.41;;;19.50;100.00
5703;BME280;2876;51.738;10.050;2023-06-22T20:40:39;98835.06;;;19.35;100.00
5703;BME280;2876;51.738;10.050;2023-06-22T20:46:41;98812.47;;;19.24;100.00
5703;BME280;2876;51.738;10.050;2023-06-22T20:52:47;98798.03;;;19.14;100.00
5703;BME280;2876;51.738;10.050;2023-06-22T20:58:49;98771.94;;;19.13;100.00
5703;BME280;2876;51.738;10.050;2023-06-22T21:04:51;98759.16;;;19.18;100.00
5703;BME280;2876;51.738;10.050;2023-06-22T21:10:54;98774.09;;;19.06;100.00
5703;BME280;2876;51.738;10.050;2023-06-22T21:16:56;98799.38;;;19.11;100.00
5703;BME280;2876;51.738;10.050;2023-06-22T21:22:58;98819.78;;;19.09;100.00
5703;BME280;2876;51.738;10.050;2023-06-22T21:29:00;98835.00;;;19.05;100.00
5703;BME280;2876;51.738;10.050;2023-06-22T21:35:03;98871.94;;;19.00;100.00
5703;BME280;2876;51.738;10.050;2023-06-22T21:41:04;98844.53;;;19.17;100.00
5703;BME280;2876;51.738;10.050;2023-06-22T21:47:08;98833.63;;;19.07;100.00
5703;BME280;2876;51.738;10.050;2023-06-22T21:53:10;98833.09;;;19.10;100.00
5703;BME280;2876;51.738;10.050;2023-06-22T21:59:12;98844.25;;;19.14;100.00
5703;BME280;2876;51.738;10.050;2023-06-22T22:05:14;98862.28;;;19.56;100.00
5703;BME280;2876;51.738;10.050;2023-06-22T22:11:16;98891.09;;;19.36;100.00
5703;BME280;2876;51.738;10.050;2023-06-22T22:17:18;98897.66;;;19.56;100.00
5703;BME280;2876;51.738;10.050;2023-06-22T22:23:20;98891.09;;;19.36;100.00
5703;BME280;2876;51.738;10.050;2023-06-22T22:29:22;98889.41;;;19.25;100.00
5703;BME280;2876;51.738;10.050;2023-06-22T22:35:24;98861.44;;;19.35;100.00
5703;BME280;2876;51.738;10.050;2023-06-22T22:41:26;98844.00;;;19.20;100.00
5703;BME280;2876;51.738;10.050;2023-06-22T22:47:28;98848.91;;;19.18;100.00
5703;BME280;2876;51.738;10.050;2023-06-22T22:53:31;98826.31;;;19.08;100.00
5703;BME280;2876;51.738;10.050;2023-06-22T22:59:33;98803.97;;;19.00;100.00
5703;BME280;2876;51.738;10.050;2023-06-22T23:05:35;98792.28;;;19.00;100.00
5703;BME280;2876;51.738;10.050;2023-06-22T23:11:37;98780.31;;;18.91;100.00
5703;BME280;2876;51.738;10.050;2023-06-22T23:17:39;98755.78;;;18.75;100.00
5703;BME280;2876;51.738;10.050;2023-06-22T23:23:41;98743.38;;;18.95;100.00
5703;BME280;2876;51.738;10.050;2023-06-22T23:29:43;98742.69;;;18.62;100.00
5703;BME280;2876;51.738;10.050;2023-06-22T23:35:45;98747.28;;;18.62;100.00
5703;BME280;2876;51.738;10.050;2023-06-22T23:41:47;98731.44;;;18.38;100.00
5703;BME280;2876;51.738;10.050;2023-06-22T23:47:50;98729.22;;;18.25;100.00
5703;BME280;2876;51.738;10.050;2023-06-22T23:53:57;98722.75;;;18.31;100.00
